createdAt,value
2018-01-21T00:00:45.361Z,0
2018-01-21T00:01:54.472Z,0
2018-01-21T00:03:03.448Z,0
2018-01-21T00:04:12.274Z,0
2018-01-21T00:05:21.100Z,0
2018-01-21T00:06:30.199Z,0
2018-01-21T00:07:39.024Z,0
2018-01-21T00:08:47.999Z,0
2018-01-21T00:09:56.824Z,0
2018-01-21T00:11:05.649Z,0
2018-01-21T00:12:14.477Z,0
2018-01-21T00:13:23.300Z,0
2018-01-21T00:14:32.177Z,0
2018-01-21T00:15:41.005Z,0
2018-01-21T00:16:49.830Z,0
2018-01-21T00:17:58.658Z,0
2018-01-21T00:19:07.486Z,0
2018-01-21T00:20:16.362Z,0
2018-01-21T00:21:25.188Z,0
2018-01-21T00:22:34.011Z,0
2018-01-21T00:23:42.841Z,0
2018-01-21T00:24:51.936Z,0
2018-01-21T00:26:00.863Z,0
2018-01-21T00:27:09.687Z,0
2018-01-21T00:28:18.517Z,0
2018-01-21T00:29:27.345Z,0
2018-01-21T00:30:36.169Z,0
2018-01-21T00:31:45.195Z,0
2018-01-21T00:32:54.022Z,0
2018-01-21T00:34:02.852Z,0
2018-01-21T00:35:11.954Z,0
2018-01-21T00:36:20.780Z,0
2018-01-21T00:37:29.606Z,0
2018-01-21T00:38:38.434Z,0
2018-01-21T00:39:47.266Z,0
2018-01-21T00:40:56.364Z,0
2018-01-21T00:42:05.466Z,0
2018-01-21T00:43:14.490Z,0
2018-01-21T00:44:23.318Z,0
2018-01-21T00:45:32.142Z,0
2018-01-21T00:46:41.243Z,0
2018-01-21T00:47:50.069Z,0
2018-01-21T00:48:59.144Z,0
2018-01-21T00:50:07.973Z,0
2018-01-21T00:51:17.078Z,0
2018-01-21T00:52:25.904Z,0
2018-01-21T00:53:34.732Z,0
2018-01-21T00:54:43.959Z,0
2018-01-21T00:55:52.783Z,0
2018-01-21T00:57:01.611Z,0
2018-01-21T00:58:10.711Z,0
2018-01-21T00:59:19.807Z,0
2018-01-21T01:00:28.785Z,0
2018-01-21T01:01:37.883Z,0
2018-01-21T01:02:46.712Z,0
2018-01-21T01:03:55.537Z,0
2018-01-21T01:05:04.363Z,0
2018-01-21T01:06:13.337Z,0
2018-01-21T01:07:22.170Z,0
2018-01-21T01:08:30.992Z,0
2018-01-21T01:09:39.816Z,0
2018-01-21T01:10:48.642Z,0
2018-01-21T01:11:57.568Z,0
2018-01-21T01:13:06.392Z,0
2018-01-21T01:14:15.217Z,0
2018-01-21T01:15:24.046Z,0
2018-01-21T01:16:32.868Z,0
2018-01-21T01:17:41.727Z,0
2018-01-21T01:18:50.520Z,0
2018-01-21T01:19:59.347Z,0
2018-01-21T01:21:08.179Z,0
2018-01-21T01:22:17.000Z,0
2018-01-21T01:23:25.927Z,0
2018-01-21T01:24:34.755Z,0
2018-01-21T01:25:43.582Z,0
2018-01-21T01:26:52.409Z,0
2018-01-21T01:28:01.237Z,0
2018-01-21T01:29:10.432Z,0
2018-01-21T01:30:19.259Z,0
2018-01-21T01:31:28.085Z,0
2018-01-21T01:32:37.184Z,0
2018-01-21T01:33:46.011Z,0
2018-01-21T01:34:54.886Z,0
2018-01-21T01:36:03.713Z,0
2018-01-21T01:37:12.539Z,0
2018-01-21T01:38:21.638Z,0
2018-01-21T01:39:30.733Z,0
2018-01-21T01:40:39.610Z,0
2018-01-21T01:41:48.437Z,0
2018-01-21T01:42:57.551Z,0
2018-01-21T01:44:06.380Z,0
2018-01-21T01:45:15.203Z,0
2018-01-21T01:46:24.130Z,0
2018-01-21T01:47:32.956Z,0
2018-01-21T01:48:41.784Z,0
2018-01-21T01:49:50.614Z,0
2018-01-21T01:50:59.981Z,0
2018-01-21T01:52:08.909Z,0
2018-01-21T01:53:17.733Z,0
2018-01-21T01:54:26.562Z,0
2018-01-21T01:55:35.389Z,0
2018-01-21T01:56:44.216Z,0
2018-01-21T01:57:54.148Z,0
2018-01-21T01:59:03.248Z,0
2018-01-21T02:00:12.071Z,0
2018-01-21T02:01:20.899Z,0
2018-01-21T02:02:29.726Z,0
2018-01-21T02:03:38.553Z,0
2018-01-21T02:04:47.378Z,0
2018-01-21T02:05:56.205Z,0
2018-01-21T02:07:05.032Z,0
2018-01-21T02:08:13.858Z,0
2018-01-21T02:09:22.933Z,0
2018-01-21T02:10:31.759Z,0
2018-01-21T02:11:40.586Z,0
2018-01-21T02:12:49.414Z,0
2018-01-21T02:13:58.241Z,0
2018-01-21T02:15:07.369Z,0
2018-01-21T02:16:16.195Z,0
2018-01-21T02:17:25.021Z,0
2018-01-21T02:18:33.847Z,0
2018-01-21T02:19:42.673Z,0
2018-01-21T02:20:51.751Z,0
2018-01-21T02:22:00.576Z,0
2018-01-21T02:23:09.408Z,0
2018-01-21T02:24:18.506Z,0
2018-01-21T02:25:27.606Z,0
2018-01-21T02:26:36.735Z,0
2018-01-21T02:27:45.560Z,0
2018-01-21T02:28:54.387Z,0
2018-01-21T02:30:03.215Z,0
2018-01-21T02:31:12.044Z,0
2018-01-21T02:32:21.023Z,0
2018-01-21T02:33:29.849Z,0
2018-01-21T02:34:38.951Z,0
2018-01-21T02:35:48.054Z,0
2018-01-21T02:36:57.156Z,0
2018-01-21T02:38:06.258Z,0
2018-01-21T02:39:15.085Z,0
2018-01-21T02:40:23.912Z,0
2018-01-21T02:41:32.740Z,0
2018-01-21T02:42:41.566Z,0
2018-01-21T02:43:50.645Z,0
2018-01-21T02:44:59.470Z,0
2018-01-21T02:46:08.297Z,0
2018-01-21T02:47:17.126Z,0
2018-01-21T02:48:26.227Z,0
2018-01-21T02:49:35.328Z,0
2018-01-21T02:50:44.159Z,0
2018-01-21T02:51:52.989Z,0
2018-01-21T02:53:02.099Z,0
2018-01-21T02:54:10.939Z,0
2018-01-21T02:55:20.131Z,0
2018-01-21T02:56:28.957Z,0
2018-01-21T02:57:37.784Z,0
2018-01-21T02:58:46.611Z,0
2018-01-21T02:59:55.438Z,0
2018-01-21T03:01:04.263Z,0
2018-01-21T03:02:13.090Z,0
2018-01-21T03:03:21.918Z,0
2018-01-21T03:04:30.744Z,0
2018-01-21T03:05:39.847Z,0
2018-01-21T03:06:48.673Z,0
2018-01-21T03:07:57.499Z,0
2018-01-21T03:09:06.327Z,0
2018-01-21T03:10:15.424Z,0
2018-01-21T03:11:24.250Z,0
2018-01-21T03:12:33.179Z,0
2018-01-21T03:13:42.278Z,0
2018-01-21T03:14:51.105Z,0
2018-01-21T03:15:59.931Z,0
2018-01-21T03:17:09.032Z,0
2018-01-21T03:18:18.011Z,0
2018-01-21T03:19:26.839Z,0
2018-01-21T03:20:35.938Z,0
2018-01-21T03:21:44.766Z,0
2018-01-21T03:22:53.592Z,0
2018-01-21T03:24:02.571Z,0
2018-01-21T03:25:11.400Z,0
2018-01-21T03:26:20.224Z,0
2018-01-21T03:27:29.060Z,0
2018-01-21T03:28:37.882Z,0
2018-01-21T03:29:46.704Z,0
2018-01-21T03:30:55.531Z,0
2018-01-21T03:32:04.363Z,0
2018-01-21T03:33:13.189Z,0
2018-01-21T03:34:22.017Z,0
2018-01-21T03:35:31.094Z,0
2018-01-21T03:36:39.922Z,0
2018-01-21T03:37:48.749Z,0
2018-01-21T03:38:57.578Z,0
2018-01-21T03:40:06.406Z,0
2018-01-21T03:41:15.231Z,0
2018-01-21T03:42:24.060Z,0
2018-01-21T03:43:32.887Z,0
2018-01-21T03:44:41.713Z,0
2018-01-21T03:45:50.540Z,0
2018-01-21T03:46:59.415Z,0
2018-01-21T03:48:08.243Z,0
2018-01-21T03:49:17.068Z,0
2018-01-21T03:50:25.895Z,0
2018-01-21T03:51:34.725Z,0
2018-01-21T03:52:43.550Z,0
2018-01-21T03:53:52.376Z,0
2018-01-21T03:55:01.202Z,0
2018-01-21T03:56:10.029Z,0
2018-01-21T03:57:19.130Z,0
2018-01-21T03:58:28.255Z,0
2018-01-21T03:59:37.357Z,0
2018-01-21T04:00:46.184Z,0
2018-01-21T04:01:55.285Z,0
2018-01-21T04:03:04.112Z,0
2018-01-21T04:04:12.986Z,0
2018-01-21T04:05:21.814Z,0
2018-01-21T04:06:30.642Z,0
2018-01-21T04:07:39.740Z,0
2018-01-21T04:08:48.568Z,0
2018-01-21T04:09:57.544Z,0
2018-01-21T04:11:06.643Z,0
2018-01-21T04:12:16.017Z,0
2018-01-21T04:13:24.841Z,0
2018-01-21T04:14:33.667Z,0
2018-01-21T04:15:42.593Z,0
2018-01-21T04:16:51.421Z,0
2018-01-21T04:18:00.250Z,0
2018-01-21T04:19:09.078Z,0
2018-01-21T04:20:17.905Z,0
2018-01-21T04:21:27.033Z,0
2018-01-21T04:22:35.860Z,0
2018-01-21T04:23:44.685Z,0
2018-01-21T04:24:53.510Z,0
2018-01-21T04:26:02.340Z,0
2018-01-21T04:27:11.418Z,0
2018-01-21T04:28:20.243Z,0
2018-01-21T04:29:29.069Z,0
2018-01-21T04:30:38.175Z,0
2018-01-21T04:31:47.003Z,0
2018-01-21T04:32:56.129Z,0
2018-01-21T04:34:04.957Z,0
2018-01-21T04:35:14.335Z,0
2018-01-21T04:36:23.162Z,0
2018-01-21T04:37:32.259Z,0
2018-01-21T04:38:41.239Z,0
2018-01-21T04:39:50.067Z,0
2018-01-21T04:40:58.894Z,0
2018-01-21T04:42:07.996Z,0
2018-01-21T04:43:16.822Z,0
2018-01-21T04:44:25.949Z,0
2018-01-21T04:45:34.776Z,0
2018-01-21T04:46:43.603Z,0
2018-01-21T04:47:52.701Z,0
2018-01-21T04:49:01.530Z,0
2018-01-21T04:50:10.508Z,0
2018-01-21T04:51:19.334Z,0
2018-01-21T04:52:28.160Z,0
2018-01-21T04:53:36.987Z,0
2018-01-21T04:54:46.089Z,0
2018-01-21T04:55:55.067Z,0
2018-01-21T04:57:03.894Z,0
2018-01-21T04:58:12.720Z,0
2018-01-21T04:59:21.546Z,0
2018-01-21T05:00:30.374Z,0
2018-01-21T05:01:39.199Z,0
2018-01-21T05:02:48.027Z,0
2018-01-21T05:03:56.854Z,0
2018-01-21T05:05:05.678Z,0
2018-01-21T05:06:14.506Z,0
2018-01-21T05:07:23.436Z,0
2018-01-21T05:08:32.264Z,0
2018-01-21T05:09:41.091Z,0
2018-01-21T05:10:49.917Z,0
2018-01-21T05:11:58.744Z,0
2018-01-21T05:13:07.675Z,0
2018-01-21T05:14:16.500Z,0
2018-01-21T05:15:25.328Z,0
2018-01-21T05:16:34.156Z,0
2018-01-21T05:17:42.983Z,0
2018-01-21T05:18:52.110Z,0
2018-01-21T05:20:00.935Z,0
2018-01-21T05:21:09.765Z,0
2018-01-21T05:22:18.869Z,0
2018-01-21T05:23:27.695Z,0
2018-01-21T05:24:36.776Z,0
2018-01-21T05:25:45.602Z,0
2018-01-21T05:26:54.429Z,0
2018-01-21T05:28:03.258Z,0
2018-01-21T05:29:12.085Z,0
2018-01-21T05:30:20.915Z,0
2018-01-21T05:31:29.740Z,0
2018-01-21T05:32:38.567Z,0
2018-01-21T05:33:47.394Z,0
2018-01-21T05:34:56.223Z,0
2018-01-21T05:36:05.470Z,0
2018-01-21T05:37:14.298Z,0
2018-01-21T05:38:23.125Z,0
2018-01-21T05:39:31.953Z,0
2018-01-21T05:40:40.778Z,0
2018-01-21T05:41:49.804Z,0
2018-01-21T05:42:58.630Z,0
2018-01-21T05:44:07.457Z,0
2018-01-21T05:45:16.287Z,0
2018-01-21T05:46:25.112Z,0
2018-01-21T05:47:33.937Z,0
2018-01-21T05:48:42.764Z,0
2018-01-21T05:49:51.589Z,0
2018-01-21T05:51:00.421Z,0
2018-01-21T05:52:09.246Z,0
2018-01-21T05:53:18.373Z,0
2018-01-21T05:54:27.479Z,0
2018-01-21T05:55:36.304Z,0
2018-01-21T05:56:45.418Z,0
2018-01-21T05:57:54.510Z,0
2018-01-21T05:59:03.440Z,0
2018-01-21T06:00:12.263Z,0
2018-01-21T06:01:21.092Z,0
2018-01-21T06:02:29.921Z,0
2018-01-21T06:03:38.745Z,0
2018-01-21T06:04:47.573Z,0
2018-01-21T06:05:56.400Z,0
2018-01-21T06:07:05.226Z,0
2018-01-21T06:08:14.054Z,0
2018-01-21T06:09:22.880Z,0
2018-01-21T06:10:31.860Z,0
2018-01-21T06:11:41.237Z,0
2018-01-21T06:12:50.061Z,0
2018-01-21T06:13:58.888Z,0
2018-01-21T06:15:07.715Z,0
2018-01-21T06:16:16.593Z,0
2018-01-21T06:17:25.420Z,0
2018-01-21T06:18:34.518Z,0
2018-01-21T06:19:43.345Z,0
2018-01-21T06:20:52.172Z,0
2018-01-21T06:22:01.049Z,0
2018-01-21T06:23:09.875Z,0
2018-01-21T06:24:18.701Z,0
2018-01-21T06:25:27.529Z,0
2018-01-21T06:26:36.354Z,0
2018-01-21T06:27:45.432Z,0
2018-01-21T06:28:54.257Z,0
2018-01-21T06:30:03.086Z,0
2018-01-21T06:31:11.914Z,0
2018-01-21T06:32:21.058Z,0
2018-01-21T06:33:29.943Z,0
2018-01-21T06:34:38.767Z,0
2018-01-21T06:35:47.595Z,0
2018-01-21T06:36:56.418Z,0
2018-01-21T06:38:05.246Z,0
2018-01-21T06:39:14.374Z,0
2018-01-21T06:40:23.202Z,0
2018-01-21T06:41:32.028Z,0
2018-01-21T06:42:40.903Z,0
2018-01-21T06:43:49.680Z,0
2018-01-21T06:44:58.608Z,0
2018-01-21T06:46:07.435Z,0
2018-01-21T06:47:16.264Z,0
2018-01-21T06:48:25.088Z,0
2018-01-21T06:49:33.914Z,0
2018-01-21T06:50:42.840Z,0
2018-01-21T06:51:51.939Z,0
2018-01-21T06:53:00.764Z,0
2018-01-21T06:54:09.592Z,0
2018-01-21T06:55:18.421Z,0
2018-01-21T06:56:27.498Z,0
2018-01-21T06:57:36.325Z,0
2018-01-21T06:58:45.152Z,0
2018-01-21T06:59:53.978Z,0
2018-01-21T07:01:02.809Z,0
2018-01-21T07:02:12.107Z,0
2018-01-21T07:03:20.935Z,0
2018-01-21T07:04:29.760Z,0
2018-01-21T07:05:38.862Z,0
2018-01-21T07:06:47.692Z,0
2018-01-21T07:07:56.916Z,0
2018-01-21T07:09:05.742Z,0
2018-01-21T07:10:14.571Z,0
2018-01-21T07:11:23.398Z,0
2018-01-21T07:12:32.225Z,0
2018-01-21T07:13:41.453Z,0
2018-01-21T07:14:50.278Z,0
2018-01-21T07:15:59.105Z,0
2018-01-21T07:17:08.209Z,0
2018-01-21T07:18:17.034Z,0
2018-01-21T07:19:26.016Z,5
2018-01-21T07:20:34.837Z,5
2018-01-21T07:21:43.664Z,5
2018-01-21T07:22:52.490Z,5
2018-01-21T07:24:01.318Z,5
2018-01-21T07:25:10.196Z,5
2018-01-21T07:26:19.292Z,5
2018-01-21T07:27:28.396Z,10
2018-01-21T07:28:37.224Z,10
2018-01-21T07:29:46.053Z,10
2018-01-21T07:30:54.931Z,10
2018-01-21T07:32:03.760Z,10
2018-01-21T07:33:12.586Z,10
2018-01-21T07:34:21.431Z,10
2018-01-21T07:35:30.242Z,15
2018-01-21T07:36:39.117Z,15
2018-01-21T07:37:47.945Z,15
2018-01-21T07:38:56.770Z,15
2018-01-21T07:40:05.597Z,20
2018-01-21T07:41:14.698Z,20
2018-01-21T07:42:23.623Z,20
2018-01-21T07:43:32.458Z,20
2018-01-21T07:44:41.287Z,25
2018-01-21T07:45:50.119Z,25
2018-01-21T07:46:59.217Z,30
2018-01-21T07:48:08.194Z,30
2018-01-21T07:49:17.024Z,30
2018-01-21T07:50:25.848Z,35
2018-01-21T07:51:34.686Z,35
2018-01-21T07:52:43.512Z,35
2018-01-21T07:53:52.640Z,35
2018-01-21T07:55:01.467Z,40
2018-01-21T07:56:10.298Z,40
2018-01-21T07:57:19.396Z,40
2018-01-21T07:58:28.223Z,40
2018-01-21T07:59:37.052Z,40
2018-01-21T08:00:45.877Z,45
2018-01-21T08:01:54.705Z,45
2018-01-21T08:03:03.531Z,45
2018-01-21T08:04:12.356Z,50
2018-01-21T08:05:21.237Z,50
2018-01-21T08:06:30.339Z,45
2018-01-21T08:07:39.437Z,45
2018-01-21T08:08:48.265Z,45
2018-01-21T08:09:57.100Z,45
2018-01-21T08:11:06.027Z,45
2018-01-21T08:12:14.854Z,45
2018-01-21T08:13:23.957Z,45
2018-01-21T08:14:32.834Z,45
2018-01-21T08:15:41.610Z,50
2018-01-21T08:16:50.436Z,50
2018-01-21T08:17:59.261Z,55
2018-01-21T08:19:08.090Z,60
2018-01-21T08:20:16.918Z,60
2018-01-21T08:21:25.746Z,65
2018-01-21T08:22:34.575Z,65
2018-01-21T08:23:43.405Z,65
2018-01-21T08:24:52.504Z,65
2018-01-21T08:26:01.332Z,65
2018-01-21T08:27:10.482Z,65
2018-01-21T08:28:19.311Z,65
2018-01-21T08:29:28.137Z,70
2018-01-21T08:30:37.242Z,70
2018-01-21T08:31:46.068Z,65
2018-01-21T08:32:54.894Z,70
2018-01-21T08:34:03.972Z,70
2018-01-21T08:35:13.075Z,70
2018-01-21T08:36:21.901Z,70
2018-01-21T08:37:30.729Z,75
2018-01-21T08:38:39.554Z,80
2018-01-21T08:39:48.381Z,80
2018-01-21T08:40:57.207Z,85
2018-01-21T08:42:06.044Z,85
2018-01-21T08:43:14.871Z,85
2018-01-21T08:44:23.699Z,75
2018-01-21T08:45:32.799Z,70
2018-01-21T08:46:41.625Z,70
2018-01-21T08:47:50.455Z,70
2018-01-21T08:48:59.285Z,70
2018-01-21T08:50:08.112Z,75
2018-01-21T08:51:17.042Z,75
2018-01-21T08:52:25.871Z,70
2018-01-21T08:53:34.697Z,75
2018-01-21T08:54:43.525Z,75
2018-01-21T08:55:52.354Z,85
2018-01-21T08:57:01.281Z,90
2018-01-21T08:58:10.113Z,95
2018-01-21T08:59:18.941Z,100
2018-01-21T09:00:27.768Z,100
2018-01-21T09:01:36.595Z,105
2018-01-21T09:02:45.526Z,110
2018-01-21T09:03:54.353Z,115
2018-01-21T09:05:03.183Z,115
2018-01-21T09:06:12.012Z,110
2018-01-21T09:07:21.115Z,105
2018-01-21T09:08:30.142Z,105
2018-01-21T09:09:38.971Z,105
2018-01-21T09:10:47.800Z,110
2018-01-21T09:11:56.627Z,110
2018-01-21T09:13:05.453Z,115
2018-01-21T09:14:14.282Z,115
2018-01-21T09:15:23.381Z,120
2018-01-21T09:16:32.211Z,120
2018-01-21T09:17:41.041Z,115
2018-01-21T09:18:49.869Z,115
2018-01-21T09:19:58.950Z,115
2018-01-21T09:21:07.781Z,120
2018-01-21T09:22:16.884Z,120
2018-01-21T09:23:25.733Z,125
2018-01-21T09:24:34.539Z,125
2018-01-21T09:25:43.367Z,125
2018-01-21T09:26:52.194Z,120
2018-01-21T09:28:01.024Z,125
2018-01-21T09:29:09.851Z,125
2018-01-21T09:30:18.957Z,125
2018-01-21T09:31:27.935Z,125
2018-01-21T09:32:36.765Z,125
2018-01-21T09:33:45.594Z,130
2018-01-21T09:34:54.421Z,130
2018-01-21T09:36:03.249Z,130
2018-01-21T09:37:12.077Z,130
2018-01-21T09:38:20.907Z,130
2018-01-21T09:39:29.735Z,130
2018-01-21T09:40:38.564Z,135
2018-01-21T09:41:47.392Z,140
2018-01-21T09:42:56.224Z,145
2018-01-21T09:44:05.052Z,150
2018-01-21T09:45:13.880Z,155
2018-01-21T09:46:22.708Z,160
2018-01-21T09:47:31.535Z,170
2018-01-21T09:48:40.942Z,180
2018-01-21T09:49:49.773Z,180
2018-01-21T09:50:58.602Z,180
2018-01-21T09:52:07.431Z,180
2018-01-21T09:53:16.259Z,180
2018-01-21T09:54:25.239Z,180
2018-01-21T09:55:34.068Z,185
2018-01-21T09:56:42.903Z,185
2018-01-21T09:57:51.728Z,190
2018-01-21T09:59:00.843Z,190
2018-01-21T10:00:09.722Z,190
2018-01-21T10:01:18.547Z,190
2018-01-21T10:02:27.377Z,190
2018-01-21T10:03:36.206Z,190
2018-01-21T10:04:45.034Z,185
2018-01-21T10:05:54.237Z,180
2018-01-21T10:07:03.068Z,180
2018-01-21T10:08:11.899Z,180
2018-01-21T10:09:20.730Z,175
2018-01-21T10:10:29.559Z,175
2018-01-21T10:11:38.616Z,175
2018-01-21T10:12:47.519Z,175
2018-01-21T10:13:56.372Z,175
2018-01-21T10:15:05.296Z,170
2018-01-21T10:16:14.727Z,175
2018-01-21T10:17:23.848Z,180
2018-01-21T10:18:32.924Z,180
2018-01-21T10:19:41.955Z,180
2018-01-21T10:20:51.087Z,180
2018-01-21T10:21:59.915Z,180
2018-01-21T10:23:17.130Z,175
2018-01-21T10:24:26.107Z,170
2018-01-21T10:25:35.316Z,175
2018-01-21T10:26:44.622Z,165
2018-01-21T10:27:54.079Z,155
2018-01-21T10:29:03.026Z,150
2018-01-21T10:30:11.856Z,145
2018-01-21T10:31:21.183Z,150
2018-01-21T10:32:30.025Z,165
2018-01-21T10:33:38.853Z,175
2018-01-21T10:34:47.739Z,180
2018-01-21T10:35:56.594Z,175
2018-01-21T10:37:05.391Z,170
2018-01-21T10:38:14.221Z,155
2018-01-21T10:39:23.052Z,140
2018-01-21T10:40:31.881Z,155
2018-01-21T10:41:40.705Z,175
2018-01-21T10:42:49.536Z,185
2018-01-21T10:43:58.364Z,190
2018-01-21T10:45:07.194Z,195
2018-01-21T10:46:16.025Z,195
2018-01-21T10:47:25.129Z,195
2018-01-21T10:48:33.960Z,190
2018-01-21T10:49:42.789Z,190
2018-01-21T10:50:51.617Z,185
2018-01-21T10:52:00.547Z,185
2018-01-21T10:53:09.381Z,185
2018-01-21T10:54:18.208Z,190
2018-01-21T10:55:27.038Z,190
2018-01-21T10:56:35.866Z,190
2018-01-21T10:57:44.947Z,190
2018-01-21T10:58:53.777Z,190
2018-01-21T11:00:02.884Z,190
2018-01-21T11:01:11.709Z,185
2018-01-21T11:02:20.538Z,190
2018-01-21T11:03:29.467Z,185
2018-01-21T11:04:38.512Z,175
2018-01-21T11:05:47.342Z,165
2018-01-21T11:06:56.171Z,155
2018-01-21T11:08:04.998Z,155
2018-01-21T11:09:13.928Z,155
2018-01-21T11:10:22.766Z,165
2018-01-21T11:11:31.596Z,175
2018-01-21T11:12:40.427Z,175
2018-01-21T11:13:49.257Z,170
2018-01-21T11:14:58.184Z,160
2018-01-21T11:16:07.022Z,155
2018-01-21T11:17:15.852Z,150
2018-01-21T11:18:24.956Z,150
2018-01-21T11:19:33.786Z,145
2018-01-21T11:20:43.034Z,140
2018-01-21T11:21:51.864Z,135
2018-01-21T11:23:00.694Z,135
2018-01-21T11:24:09.524Z,145
2018-01-21T11:25:18.370Z,150
2018-01-21T11:26:27.753Z,145
2018-01-21T11:27:36.583Z,140
2018-01-21T11:28:45.409Z,135
2018-01-21T11:29:54.239Z,125
2018-01-21T11:31:03.066Z,110
2018-01-21T11:32:11.995Z,100
2018-01-21T11:33:20.826Z,100
2018-01-21T11:34:29.656Z,95
2018-01-21T11:35:38.488Z,95
2018-01-21T11:36:47.315Z,100
2018-01-21T11:37:56.394Z,115
2018-01-21T11:39:05.231Z,135
2018-01-21T11:40:14.062Z,140
2018-01-21T11:41:22.890Z,140
2018-01-21T11:42:31.717Z,135
2018-01-21T11:43:40.797Z,130
2018-01-21T11:44:49.626Z,125
2018-01-21T11:45:58.453Z,130
2018-01-21T11:47:10.740Z,130
2018-01-21T11:48:16.111Z,135
2018-01-21T11:49:25.038Z,135
2018-01-21T11:50:33.868Z,135
2018-01-21T11:51:42.696Z,145
2018-01-21T11:52:51.524Z,150
2018-01-21T11:54:00.410Z,150
2018-01-21T11:55:09.327Z,150
2018-01-21T11:56:18.168Z,145
2018-01-21T11:57:27.247Z,135
2018-01-21T11:58:36.081Z,140
2018-01-21T11:59:44.910Z,150
2018-01-21T12:00:54.017Z,160
2018-01-21T12:02:02.850Z,155
2018-01-21T12:03:11.681Z,155
2018-01-21T12:04:20.509Z,155
2018-01-21T12:05:29.337Z,160
2018-01-21T12:06:38.442Z,155
2018-01-21T12:07:47.273Z,145
2018-01-21T12:08:56.103Z,140
2018-01-21T12:10:04.932Z,130
2018-01-21T12:11:13.772Z,125
2018-01-21T12:12:22.611Z,125
2018-01-21T12:13:31.748Z,125
2018-01-21T12:14:40.545Z,125
2018-01-21T12:15:49.643Z,130
2018-01-21T12:16:58.468Z,130
2018-01-21T12:18:07.298Z,135
2018-01-21T12:19:16.126Z,135
2018-01-21T12:20:24.957Z,135
2018-01-21T12:21:34.058Z,140
2018-01-21T12:22:42.884Z,145
2018-01-21T12:23:51.984Z,150
2018-01-21T12:25:00.813Z,150
2018-01-21T12:26:09.692Z,150
2018-01-21T12:27:18.520Z,150
2018-01-21T12:28:27.347Z,155
2018-01-21T12:29:36.177Z,145
2018-01-21T12:30:45.015Z,140
2018-01-21T12:31:53.891Z,135
2018-01-21T12:33:02.991Z,125
2018-01-21T12:34:11.821Z,125
2018-01-21T12:35:20.650Z,125
2018-01-21T12:36:29.753Z,125
2018-01-21T12:37:38.731Z,125
2018-01-21T12:38:47.560Z,135
2018-01-21T12:39:56.389Z,140
2018-01-21T12:41:05.218Z,140
2018-01-21T12:42:14.046Z,130
2018-01-21T12:43:22.976Z,120
2018-01-21T12:44:32.356Z,115
2018-01-21T12:45:41.183Z,115
2018-01-21T12:46:50.284Z,115
2018-01-21T12:47:59.112Z,110
2018-01-21T12:49:08.097Z,105
2018-01-21T12:50:16.971Z,115
2018-01-21T12:51:25.749Z,130
2018-01-21T12:52:34.580Z,140
2018-01-21T12:53:43.409Z,150
2018-01-21T12:54:52.390Z,155
2018-01-21T12:56:01.220Z,165
2018-01-21T12:57:10.052Z,165
2018-01-21T12:58:18.875Z,170
2018-01-21T12:59:27.702Z,165
2018-01-21T13:00:36.714Z,160
2018-01-21T13:01:45.507Z,155
2018-01-21T13:02:54.335Z,165
2018-01-21T13:04:03.166Z,180
2018-01-21T13:05:12.001Z,160
2018-01-21T13:06:20.832Z,165
2018-01-21T13:07:29.660Z,160
2018-01-21T13:08:38.490Z,155
2018-01-21T13:09:47.321Z,150
2018-01-21T13:10:56.150Z,130
2018-01-21T13:12:05.179Z,120
2018-01-21T13:13:14.009Z,130
2018-01-21T13:14:22.837Z,135
2018-01-21T13:15:31.665Z,145
2018-01-21T13:16:40.495Z,135
2018-01-21T13:17:49.476Z,130
2018-01-21T13:18:58.305Z,130
2018-01-21T13:20:07.135Z,125
2018-01-21T13:21:15.964Z,125
2018-01-21T13:22:24.794Z,125
2018-01-21T13:23:33.770Z,105
2018-01-21T13:24:42.603Z,120
2018-01-21T13:25:51.491Z,125
2018-01-21T13:27:00.319Z,115
2018-01-21T13:28:09.151Z,110
2018-01-21T13:29:18.179Z,115
2018-01-21T13:30:27.014Z,110
2018-01-21T13:31:35.840Z,110
2018-01-21T13:32:44.669Z,100
2018-01-21T13:33:53.501Z,95
2018-01-21T13:35:03.075Z,95
2018-01-21T13:36:11.968Z,90
2018-01-21T13:37:21.074Z,100
2018-01-21T13:38:29.898Z,100
2018-01-21T13:39:38.724Z,90
2018-01-21T13:40:47.604Z,95
2018-01-21T13:41:56.434Z,95
2018-01-21T13:43:05.264Z,95
2018-01-21T13:44:14.094Z,95
2018-01-21T13:45:22.923Z,95
2018-01-21T13:46:31.907Z,95
2018-01-21T13:47:40.737Z,90
2018-01-21T13:48:49.568Z,85
2018-01-21T13:49:58.395Z,80
2018-01-21T13:51:07.226Z,75
2018-01-21T13:52:16.057Z,70
2018-01-21T13:53:24.886Z,65
2018-01-21T13:54:33.713Z,65
2018-01-21T13:55:42.542Z,65
2018-01-21T13:56:51.417Z,60
2018-01-21T13:58:00.199Z,60
2018-01-21T13:59:09.029Z,60
2018-01-21T14:00:17.859Z,55
2018-01-21T14:01:26.689Z,55
2018-01-21T14:02:35.517Z,55
2018-01-21T14:03:44.344Z,55
2018-01-21T14:04:53.173Z,55
2018-01-21T14:06:02.001Z,55
2018-01-21T14:07:10.832Z,55
2018-01-21T14:08:19.659Z,50
2018-01-21T14:09:28.485Z,45
2018-01-21T14:10:37.312Z,45
2018-01-21T14:11:46.242Z,40
2018-01-21T14:12:55.072Z,40
2018-01-21T14:14:03.898Z,40
2018-01-21T14:15:12.727Z,40
2018-01-21T14:16:21.554Z,40
2018-01-21T14:17:30.482Z,40
2018-01-21T14:18:39.311Z,35
2018-01-21T14:19:48.235Z,40
2018-01-21T14:20:57.064Z,40
2018-01-21T14:22:05.892Z,40
2018-01-21T14:23:14.979Z,40
2018-01-21T14:24:23.816Z,40
2018-01-21T14:25:32.645Z,40
2018-01-21T14:26:41.492Z,40
2018-01-21T14:27:50.324Z,35
2018-01-21T14:28:59.308Z,35
2018-01-21T14:30:08.140Z,35
2018-01-21T14:31:16.972Z,35
2018-01-21T14:32:26.071Z,35
2018-01-21T14:33:34.898Z,35
2018-01-21T14:34:43.979Z,40
2018-01-21T14:35:52.808Z,40
2018-01-21T14:37:01.636Z,35
2018-01-21T14:38:10.476Z,35
2018-01-21T14:39:19.304Z,30
2018-01-21T14:40:28.132Z,30
2018-01-21T14:41:36.962Z,30
2018-01-21T14:42:45.790Z,30
2018-01-21T14:43:54.619Z,25
2018-01-21T14:45:03.448Z,25
2018-01-21T14:46:12.279Z,25
2018-01-21T14:47:21.108Z,20
2018-01-21T14:48:29.935Z,20
2018-01-21T14:49:38.764Z,20
2018-01-21T14:50:47.591Z,20
2018-01-21T14:51:56.522Z,20
2018-01-21T14:53:05.352Z,20
2018-01-21T14:54:14.235Z,15
2018-01-21T14:55:23.010Z,15
2018-01-21T14:56:31.837Z,15
2018-01-21T14:57:41.066Z,10
2018-01-21T14:58:49.893Z,10
2018-01-21T14:59:58.723Z,10
2018-01-21T15:01:07.551Z,10
2018-01-21T15:02:16.377Z,10
2018-01-21T15:03:25.428Z,10
2018-01-21T15:04:34.259Z,10
2018-01-21T15:05:43.088Z,10
2018-01-21T15:06:51.916Z,10
2018-01-21T15:08:00.920Z,10
2018-01-21T15:09:09.752Z,10
2018-01-21T15:10:18.580Z,10
2018-01-21T15:11:27.406Z,10
2018-01-21T15:12:36.238Z,10
2018-01-21T15:13:45.064Z,10
2018-01-21T15:14:53.894Z,10
2018-01-21T15:16:02.724Z,10
2018-01-21T15:17:11.550Z,10
2018-01-21T15:18:20.380Z,10
2018-01-21T15:19:29.208Z,10
2018-01-21T15:20:38.034Z,10
2018-01-21T15:21:46.865Z,5
2018-01-21T15:22:55.698Z,5
2018-01-21T15:24:04.523Z,10
2018-01-21T15:25:13.353Z,5
2018-01-21T15:26:22.182Z,5
2018-01-21T15:27:31.034Z,5
2018-01-21T15:28:39.874Z,5
2018-01-21T15:29:48.983Z,5
2018-01-21T15:30:57.811Z,5
2018-01-21T15:32:06.812Z,5
2018-01-21T15:33:15.913Z,5
2018-01-21T15:34:24.742Z,5
2018-01-21T15:35:33.583Z,0
2018-01-21T15:36:42.412Z,0
2018-01-21T15:37:51.387Z,0
2018-01-21T15:39:00.493Z,0
2018-01-21T15:40:09.421Z,0
2018-01-21T15:41:18.301Z,0
2018-01-21T15:42:27.146Z,0
2018-01-21T15:43:36.296Z,0
2018-01-21T15:44:45.124Z,0
2018-01-21T15:45:53.960Z,0
2018-01-21T15:47:02.795Z,0
2018-01-21T15:48:11.894Z,0
2018-01-21T15:49:20.776Z,0
2018-01-21T15:50:29.605Z,0
2018-01-21T15:51:38.485Z,0
2018-01-21T15:52:47.536Z,0
2018-01-21T15:53:56.363Z,0
2018-01-21T15:55:05.191Z,0
2018-01-21T15:56:14.038Z,0
2018-01-21T15:57:22.864Z,0
2018-01-21T15:58:31.693Z,0
2018-01-21T15:59:40.524Z,0
2018-01-21T16:00:49.501Z,0
2018-01-21T16:01:58.335Z,0
2018-01-21T16:03:07.435Z,0
2018-01-21T16:04:16.264Z,0
2018-01-21T16:05:25.087Z,0
2018-01-21T16:06:34.015Z,0
2018-01-21T16:07:42.844Z,0
2018-01-21T16:08:51.673Z,0
2018-01-21T16:10:00.501Z,0
2018-01-21T16:11:09.328Z,0
2018-01-21T16:12:18.209Z,0
2018-01-21T16:13:27.587Z,0
2018-01-21T16:14:36.416Z,0
2018-01-21T16:15:45.248Z,0
2018-01-21T16:16:54.078Z,0
2018-01-21T16:18:02.902Z,0
2018-01-21T16:19:11.732Z,0
2018-01-21T16:20:20.602Z,0
2018-01-21T16:21:29.388Z,0
2018-01-21T16:22:38.217Z,0
2018-01-21T16:23:47.372Z,0
2018-01-21T16:24:56.308Z,0
2018-01-21T16:26:05.132Z,0
2018-01-21T16:27:13.963Z,0
2018-01-21T16:28:23.065Z,0
2018-01-21T16:29:32.193Z,0
2018-01-21T16:30:41.294Z,0
2018-01-21T16:31:50.121Z,0